createdAt,value
2023-03-13T00:03:04.586Z,6.90
2023-03-13T00:08:06.837Z,6.80
2023-03-13T00:13:10.250Z,6.80
2023-03-13T00:18:13.764Z,6.70
2023-03-13T00:23:16.327Z,7.00
2023-03-13T00:28:18.580Z,7.40
2023-03-13T00:33:22.137Z,7.40
2023-03-13T00:38:27.373Z,7.40
2023-03-13T00:43:30.284Z,7.30
2023-03-13T00:48:34.525Z,7.00
2023-03-13T00:53:37.287Z,6.60
2023-03-13T00:58:41.070Z,6.40
2023-03-13T01:03:47.473Z,6.30
2023-03-13T01:08:50.026Z,6.20
2023-03-13T01:13:55.189Z,6.40
2023-03-13T01:19:03.153Z,6.20
2023-03-13T01:24:05.760Z,6.00
2023-03-13T01:29:08.138Z,6.30
2023-03-13T01:34:12.850Z,6.60
2023-03-13T01:39:15.086Z,6.80
2023-03-13T01:44:24.117Z,6.70
2023-03-13T01:49:33.593Z,6.50
2023-03-13T01:54:42.248Z,6.40
2023-03-13T01:59:48.695Z,6.60
2023-03-13T02:04:56.606Z,6.50
2023-03-13T02:09:58.986Z,6.50
2023-03-13T02:15:04.085Z,6.50
2023-03-13T02:20:09.122Z,6.50
2023-03-13T02:25:18.885Z,6.50
2023-03-13T02:30:22.893Z,6.70
2023-03-13T02:35:26.147Z,6.60
2023-03-13T02:40:31.417Z,6.70
2023-03-13T02:45:34.708Z,6.80
2023-03-13T02:50:38.130Z,6.90
2023-03-13T02:55:42.578Z,6.90
2023-03-13T03:00:46.807Z,6.90
2023-03-13T03:05:48.913Z,7.10
2023-03-13T03:10:51.246Z,7.00
2023-03-13T03:15:55.270Z,7.20
2023-03-13T03:20:57.377Z,7.40
2023-03-13T03:25:59.233Z,7.20
2023-03-13T03:31:07.271Z,7.20
2023-03-13T03:36:11.302Z,7.10
2023-03-13T03:41:15.354Z,6.80
2023-03-13T03:46:19.135Z,6.80
2023-03-13T03:51:21.101Z,6.90
2023-03-13T03:56:23.120Z,6.90
2023-03-13T04:01:27.068Z,6.80
2023-03-13T04:06:29.173Z,6.80
2023-03-13T04:11:31.851Z,6.70
2023-03-13T04:16:36.002Z,6.80
2023-03-13T04:21:39.877Z,6.80
2023-03-13T04:26:42.209Z,7.00
2023-03-13T04:31:45.793Z,7.10
2023-03-13T04:36:48.141Z,6.60
2023-03-13T04:41:50.564Z,6.70
2023-03-13T04:46:54.330Z,6.70
2023-03-13T04:51:56.416Z,6.80
2023-03-13T04:56:58.485Z,6.80
2023-03-13T05:02:02.265Z,6.80
2023-03-13T05:07:04.270Z,6.90
2023-03-13T05:12:07.117Z,6.90
2023-03-13T05:17:11.092Z,6.70
2023-03-13T05:22:13.207Z,6.80
2023-03-13T05:27:15.086Z,6.70
2023-03-13T05:32:18.880Z,6.80
2023-03-13T05:37:20.818Z,6.70
2023-03-13T05:42:23.738Z,6.70
2023-03-13T05:47:27.751Z,6.70
2023-03-13T05:52:30.094Z,6.60
2023-03-13T05:57:32.376Z,6.60
2023-03-13T06:02:36.256Z,6.60
2023-03-13T06:07:38.836Z,6.90
2023-03-13T06:12:41.108Z,6.90
2023-03-13T06:17:44.894Z,6.90
2023-03-13T06:22:46.927Z,7.00
2023-03-13T06:27:48.820Z,7.20
2023-03-13T06:32:52.679Z,7.10
2023-03-13T06:37:55.686Z,7.30
2023-03-13T06:42:57.990Z,7.40
2023-03-13T06:48:01.744Z,7.60
2023-03-13T06:53:03.923Z,7.60
2023-03-13T06:58:06.043Z,7.70
2023-03-13T07:03:09.453Z,7.90
2023-03-13T07:08:11.797Z,7.90
2023-03-13T07:13:14.090Z,7.60
2023-03-13T07:18:17.837Z,7.50
2023-03-13T07:23:19.930Z,7.50
2023-03-13T07:28:22.482Z,7.60
2023-03-13T07:33:25.997Z,7.70
2023-03-13T07:38:28.114Z,7.60
2023-03-13T07:43:31.699Z,7.70
2023-03-13T07:48:37.415Z,7.80
2023-03-13T07:53:39.665Z,7.90
2023-03-13T07:58:43.220Z,7.80
2023-03-13T08:03:49.451Z,7.80
2023-03-13T08:08:52.942Z,8.00
2023-03-13T08:13:56.964Z,8.40
2023-03-13T08:19:01.492Z,9.10
2023-03-13T08:24:07.086Z,9.80
2023-03-13T08:29:10.788Z,10.20
2023-03-13T08:34:15.537Z,10.30
2023-03-13T08:39:19.779Z,10.40
2023-03-13T08:44:21.786Z,10.40
2023-03-13T08:49:25.601Z,10.80
2023-03-13T08:54:27.939Z,11.50
2023-03-13T08:59:30.490Z,12.30
2023-03-13T09:04:33.957Z,12.50
2023-03-13T09:09:36.395Z,13.20
2023-03-13T09:14:38.489Z,14.20
2023-03-13T09:19:57.714Z,14.20
2023-03-13T09:25:01.465Z,15.40
2023-03-13T09:30:03.864Z,16.00
2023-03-13T09:35:08.391Z,16.30
2023-03-13T09:40:16.817Z,16.40
2023-03-13T09:45:24.272Z,17.10
2023-03-13T09:50:31.353Z,17.30
2023-03-13T09:55:36.235Z,18.60
2023-03-13T10:00:41.454Z,19.10
2023-03-13T10:05:50.814Z,19.60
2023-03-13T10:10:59.066Z,20.30
2023-03-13T10:16:05.058Z,21.20
2023-03-13T10:21:17.827Z,20.50
2023-03-13T10:26:25.598Z,21.40
2023-03-13T10:31:33.473Z,20.90
2023-03-13T10:36:44.642Z,22.10
2023-03-13T10:41:47.874Z,20.50
2023-03-13T10:46:52.575Z,20.80
2023-03-13T10:51:57.815Z,20.30
2023-03-13T10:57:22.589Z,21.20
2023-03-13T11:02:28.537Z,23.50
2023-03-13T11:07:35.448Z,25.70
2023-03-13T11:12:37.860Z,25.60
2023-03-13T11:17:42.278Z,24.50
2023-03-13T11:22:56.909Z,21.80
2023-03-13T11:28:42.755Z,22.20
2023-03-13T11:34:09.405Z,23.00
2023-03-13T11:40:01.379Z,23.10
2023-03-13T11:45:08.225Z,20.60
2023-03-13T11:50:19.346Z,22.70
2023-03-13T11:55:36.084Z,24.00
2023-03-13T12:00:41.795Z,25.40
2023-03-13T12:05:48.775Z,26.70
2023-03-13T12:11:04.180Z,28.10
2023-03-13T12:16:12.444Z,28.00
2023-03-13T12:21:21.300Z,28.10
2023-03-13T12:26:37.164Z,28.70
2023-03-13T12:31:43.620Z,28.90
2023-03-13T12:36:50.153Z,29.30
2023-03-13T12:42:07.902Z,30.10
2023-03-13T12:47:15.857Z,29.50
2023-03-13T12:52:40.284Z,30.10
2023-03-13T12:58:16.275Z,30.80
2023-03-13T13:03:30.959Z,31.80
2023-03-13T13:08:37.268Z,32.20
2023-03-13T13:13:42.442Z,31.50
2023-03-13T13:18:44.508Z,32.40
2023-03-13T13:23:48.341Z,31.40
2023-03-13T13:28:52.099Z,31.00
2023-03-13T13:33:54.689Z,32.50
2023-03-13T13:38:58.631Z,34.00
2023-03-13T13:44:25.496Z,32.40
2023-03-13T13:49:34.029Z,32.50
2023-03-13T13:54:56.324Z,28.70
2023-03-13T14:00:06.944Z,26.30
2023-03-13T14:05:16.421Z,27.70
2023-03-13T14:10:30.467Z,26.90
2023-03-13T14:15:35.976Z,27.60
2023-03-13T14:20:39.146Z,27.30
2023-03-13T14:25:47.279Z,26.00
2023-03-13T14:30:53.647Z,25.60
2023-03-13T14:35:57.925Z,24.50
2023-03-13T14:41:00.749Z,25.50
2023-03-13T14:46:16.307Z,25.70
2023-03-13T14:51:23.919Z,27.10
2023-03-13T14:56:34.932Z,27.80
2023-03-13T15:01:38.424Z,29.30
2023-03-13T15:06:40.696Z,26.60
2023-03-13T15:11:44.416Z,24.50
2023-03-13T15:16:48.065Z,25.70
2023-03-13T15:21:54.574Z,26.60
2023-03-13T15:26:56.709Z,25.60
2023-03-13T15:32:04.429Z,26.00
2023-03-13T15:37:06.315Z,25.40
2023-03-13T15:42:10.112Z,24.70
2023-03-13T15:47:15.959Z,24.90
2023-03-13T15:52:22.900Z,23.70
2023-03-13T15:57:26.868Z,24.70
2023-03-13T16:02:30.978Z,25.30
2023-03-13T16:07:33.080Z,24.80
2023-03-13T16:12:35.354Z,24.60
2023-03-13T16:17:39.105Z,23.20
2023-03-13T16:22:41.354Z,21.90
2023-03-13T16:27:43.677Z,21.60
2023-03-13T16:32:47.381Z,21.50
2023-03-13T16:37:51.044Z,22.20
2023-03-13T16:42:53.610Z,21.90
2023-03-13T16:47:57.289Z,20.60
2023-03-13T16:53:00.024Z,20.00
2023-03-13T16:58:02.136Z,19.60
2023-03-13T17:03:06.790Z,19.40
2023-03-13T17:08:11.265Z,19.00
2023-03-13T17:13:13.539Z,18.90
2023-03-13T17:18:17.699Z,18.60
2023-03-13T17:23:19.989Z,18.40
2023-03-13T17:28:22.343Z,18.40
2023-03-13T17:33:26.390Z,18.40
2023-03-13T17:38:29.459Z,18.30
2023-03-13T17:43:32.432Z,18.10
2023-03-13T17:48:36.933Z,18.00
2023-03-13T17:53:39.934Z,17.90
2023-03-13T17:58:43.198Z,17.70
2023-03-13T18:03:47.741Z,17.50
2023-03-13T18:08:51.949Z,17.50
2023-03-13T18:13:55.752Z,17.30
2023-03-13T18:19:00.646Z,17.10
2023-03-13T18:24:03.729Z,17.20
2023-03-13T18:29:15.649Z,17.30
2023-03-13T18:34:20.488Z,17.00
2023-03-13T18:39:24.576Z,17.20
2023-03-13T18:44:28.200Z,17.10
2023-03-13T18:49:33.400Z,16.90
2023-03-13T18:54:37.097Z,17.20
2023-03-13T18:59:40.125Z,17.10
2023-03-13T19:04:47.710Z,16.90
2023-03-13T19:09:54.124Z,16.90
2023-03-13T19:14:59.091Z,16.80
2023-03-13T19:20:05.129Z,16.90
2023-03-13T19:25:09.794Z,17.00
2023-03-13T19:30:24.792Z,17.30
2023-03-13T19:35:33.677Z,17.00
2023-03-13T19:40:38.590Z,17.20
2023-03-13T19:45:46.694Z,17.30
2023-03-13T19:50:54.564Z,17.10
2023-03-13T19:55:58.456Z,17.30
2023-03-13T20:01:15.108Z,17.20
2023-03-13T20:06:25.723Z,17.30
2023-03-13T20:11:30.748Z,17.30
2023-03-13T20:16:42.255Z,17.20
2023-03-13T20:21:48.690Z,17.30
2023-03-13T20:26:52.779Z,17.20
2023-03-13T20:32:00.653Z,17.00
2023-03-13T20:37:05.718Z,17.10
2023-03-13T20:42:11.445Z,16.80
2023-03-13T20:47:15.776Z,16.80
2023-03-13T20:52:21.316Z,16.70
2023-03-13T20:57:26.108Z,16.80
2023-03-13T21:02:30.946Z,16.70
2023-03-13T21:07:35.962Z,16.80
2023-03-13T21:12:39.749Z,16.90
2023-03-13T21:17:42.763Z,16.80
2023-03-13T21:22:47.169Z,16.90
2023-03-13T21:27:49.734Z,16.70
2023-03-13T21:32:52.125Z,16.60
2023-03-13T21:37:56.407Z,16.70
2023-03-13T21:42:58.950Z,16.50
2023-03-13T21:48:03.066Z,16.70
2023-03-13T21:53:06.334Z,16.10
2023-03-13T21:58:08.724Z,15.60
2023-03-13T22:03:11.047Z,15.30
2023-03-13T22:08:14.926Z,15.00
2023-03-13T22:13:17.036Z,14.70
2023-03-13T22:18:19.597Z,14.30
2023-03-13T22:23:23.281Z,14.00
2023-03-13T22:28:26.335Z,13.70
2023-03-13T22:33:28.602Z,13.60
2023-03-13T22:38:36.366Z,13.50
2023-03-13T22:43:38.577Z,13.70
2023-03-13T22:48:40.674Z,13.70
2023-03-13T22:53:44.588Z,13.70
2023-03-13T22:58:47.014Z,13.90
2023-03-13T23:03:49.533Z,13.60
2023-03-13T23:08:53.795Z,13.50
2023-03-13T23:13:56.180Z,13.30
2023-03-13T23:18:58.558Z,13.30
2023-03-13T23:24:01.907Z,13.20
2023-03-13T23:29:04.460Z,13.30
2023-03-13T23:34:06.471Z,13.30
2023-03-13T23:39:10.070Z,13.20
2023-03-13T23:44:12.263Z,13.10
2023-03-13T23:49:14.343Z,12.90
2023-03-13T23:54:19.191Z,12.70
2023-03-13T23:59:21.332Z,12.70
